sensor_id;sensor_type;location;lat;lon;timestamp;temperature;humidity
51011;DHT22;37038;50.182;8.624;2023-07-13T00:02:39;20.60;36.70
51011;DHT22;37038;50.182;8.624;2023-07-13T00:05:26;20.70;36.40
51011;DHT22;37038;50.182;8.624;2023-07-13T00:08:15;20.80;36.50
51011;DHT22;37038;50.182;8.624;2023-07-13T00:11:03;20.80;37.90
51011;DHT22;37038;50.182;8.624;2023-07-13T00:13:51;20.80;37.50
51011;DHT22;37038;50.182;8.624;2023-07-13T00:16:57;20.60;37.80
51011;DHT22;37038;50.182;8.624;2023-07-13T00:19:48;20.70;37.10
51011;DHT22;37038;50.182;8.624;2023-07-13T00:22:38;20.70;37.10
51011;DHT22;37038;50.182;8.624;2023-07-13T00:25:49;20.60;36.70
51011;DHT22;37038;50.182;8.624;2023-07-13T00:28:41;20.70;36.10
51011;DHT22;37038;50.182;8.624;2023-07-13T00:31:30;20.70;37.20
51011;DHT22;37038;50.182;8.624;2023-07-13T00:34:19;20.70;36.80
51011;DHT22;37038;50.182;8.624;2023-07-13T00:37:06;20.80;37.00
51011;DHT22;37038;50.182;8.624;2023-07-13T00:39:55;20.70;39.50
51011;DHT22;37038;50.182;8.624;2023-07-13T00:42:42;20.70;38.80
51011;DHT22;37038;50.182;8.624;2023-07-13T00:48:19;20.50;40.30
51011;DHT22;37038;50.182;8.624;2023-07-13T00:51:15;20.20;39.70
51011;DHT22;37038;50.182;8.624;2023-07-13T00:54:21;20.00;39.70
51011;DHT22;37038;50.182;8.624;2023-07-13T00:57:11;20.10;42.10
51011;DHT22;37038;50.182;8.624;2023-07-13T01:00:00;20.20;42.30
51011;DHT22;37038;50.182;8.624;2023-07-13T01:02:54;20.20;42.50
51011;DHT22;37038;50.182;8.624;2023-07-13T01:05:41;20.20;44.10
51011;DHT22;37038;50.182;8.624;2023-07-13T01:08:29;20.20;42.50
51011;DHT22;37038;50.182;8.624;2023-07-13T01:11:20;20.20;52.70
51011;DHT22;37038;50.182;8.624;2023-07-13T01:21:21;19.90;45.60
51011;DHT22;37038;50.182;8.624;2023-07-13T01:24:09;19.80;46.80
51011;DHT22;37038;50.182;8.624;2023-07-13T01:26:56;19.60;49.20
51011;DHT22;37038;50.182;8.624;2023-07-13T01:29:44;19.60;49.50
51011;DHT22;37038;50.182;8.624;2023-07-13T01:32:35;19.50;52.90
51011;DHT22;37038;50.182;8.624;2023-07-13T01:35:24;19.30;58.40
51011;DHT22;37038;50.182;8.624;2023-07-13T01:38:15;19.40;53.60
51011;DHT22;37038;50.182;8.624;2023-07-13T01:41:03;19.50;52.80
51011;DHT22;37038;50.182;8.624;2023-07-13T01:43:51;19.50;54.70
51011;DHT22;37038;50.182;8.624;2023-07-13T01:46:39;19.50;53.70
51011;DHT22;37038;50.182;8.624;2023-07-13T01:49:27;19.30;54.20
51011;DHT22;37038;50.182;8.624;2023-07-13T01:52:14;19.10;54.60
51011;DHT22;37038;50.182;8.624;2023-07-13T01:55:02;19.10;55.30
51011;DHT22;37038;50.182;8.624;2023-07-13T01:57:49;19.00;56.30
51011;DHT22;37038;50.182;8.624;2023-07-13T02:00:37;19.10;57.70
51011;DHT22;37038;50.182;8.624;2023-07-13T02:03:25;19.10;58.30
51011;DHT22;37038;50.182;8.624;2023-07-13T02:06:13;19.30;57.90
51011;DHT22;37038;50.182;8.624;2023-07-13T02:09:00;19.20;52.90
51011;DHT22;37038;50.182;8.624;2023-07-13T02:11:48;19.40;55.50
51011;DHT22;37038;50.182;8.624;2023-07-13T02:14:35;19.30;56.00
51011;DHT22;37038;50.182;8.624;2023-07-13T02:17:27;19.00;53.20
51011;DHT22;37038;50.182;8.624;2023-07-13T02:20:15;18.90;53.00
51011;DHT22;37038;50.182;8.624;2023-07-13T02:23:02;19.10;51.50
51011;DHT22;37038;50.182;8.624;2023-07-13T02:25:57;19.20;48.10
51011;DHT22;37038;50.182;8.624;2023-07-13T02:28:44;19.30;47.80
51011;DHT22;37038;50.182;8.624;2023-07-13T02:31:32;19.40;45.20
51011;DHT22;37038;50.182;8.624;2023-07-13T02:34:19;19.50;40.40
51011;DHT22;37038;50.182;8.624;2023-07-13T02:37:07;19.50;41.50
51011;DHT22;37038;50.182;8.624;2023-07-13T02:39:54;19.50;41.60
51011;DHT22;37038;50.182;8.624;2023-07-13T02:42:42;19.70;44.00
51011;DHT22;37038;50.182;8.624;2023-07-13T02:45:29;19.60;47.60
51011;DHT22;37038;50.182;8.624;2023-07-13T02:48:17;19.60;44.70
51011;DHT22;37038;50.182;8.624;2023-07-13T02:51:04;19.20;46.10
51011;DHT22;37038;50.182;8.624;2023-07-13T02:53:51;18.90;47.30
51011;DHT22;37038;50.182;8.624;2023-07-13T02:56:40;19.00;48.70
51011;DHT22;37038;50.182;8.624;2023-07-13T02:59:27;19.10;49.10
51011;DHT22;37038;50.182;8.624;2023-07-13T03:02:14;18.80;48.30
51011;DHT22;37038;50.182;8.624;2023-07-13T03:05:02;18.50;50.60
51011;DHT22;37038;50.182;8.624;2023-07-13T03:07:49;18.30;54.30
51011;DHT22;37038;50.182;8.624;2023-07-13T03:10:37;18.40;56.60
51011;DHT22;37038;50.182;8.624;2023-07-13T03:13:25;18.30;57.80
51011;DHT22;37038;50.182;8.624;2023-07-13T03:16:12;18.00;61.50
51011;DHT22;37038;50.182;8.624;2023-07-13T03:19:03;17.90;64.80
51011;DHT22;37038;50.182;8.624;2023-07-13T03:21:51;17.80;70.70
51011;DHT22;37038;50.182;8.624;2023-07-13T03:24:38;17.80;76.30
51011;DHT22;37038;50.182;8.624;2023-07-13T03:27:26;17.90;75.80
51011;DHT22;37038;50.182;8.624;2023-07-13T03:30:13;17.80;79.00
51011;DHT22;37038;50.182;8.624;2023-07-13T03:33:01;17.80;80.20
51011;DHT22;37038;50.182;8.624;2023-07-13T03:35:49;17.60;82.70
51011;DHT22;37038;50.182;8.624;2023-07-13T03:38:36;17.50;83.50
51011;DHT22;37038;50.182;8.624;2023-07-13T03:41:24;17.60;83.80
51011;DHT22;37038;50.182;8.624;2023-07-13T03:44:11;17.90;83.30
51011;DHT22;37038;50.182;8.624;2023-07-13T03:46:59;17.70;83.40
51011;DHT22;37038;50.182;8.624;2023-07-13T03:49:46;17.60;84.10
51011;DHT22;37038;50.182;8.624;2023-07-13T03:52:34;17.30;85.20
51011;DHT22;37038;50.182;8.624;2023-07-13T03:55:21;17.30;89.30
51011;DHT22;37038;50.182;8.624;2023-07-13T03:58:28;17.40;90.50
51011;DHT22;37038;50.182;8.624;2023-07-13T04:01:17;17.50;91.20
51011;DHT22;37038;50.182;8.624;2023-07-13T04:04:05;17.40;92.10
51011;DHT22;37038;50.182;8.624;2023-07-13T04:06:53;17.30;92.90
51011;DHT22;37038;50.182;8.624;2023-07-13T04:09:40;17.20;94.40
51011;DHT22;37038;50.182;8.624;2023-07-13T04:12:27;17.30;95.20
51011;DHT22;37038;50.182;8.624;2023-07-13T04:15:17;17.40;95.70
51011;DHT22;37038;50.182;8.624;2023-07-13T04:18:04;17.40;95.50
51011;DHT22;37038;50.182;8.624;2023-07-13T04:20:52;17.90;95.00
51011;DHT22;37038;50.182;8.624;2023-07-13T04:23:39;18.30;94.00
51011;DHT22;37038;50.182;8.624;2023-07-13T04:26:27;18.50;93.30
51011;DHT22;37038;50.182;8.624;2023-07-13T04:29:14;19.00;92.20
51011;DHT22;37038;50.182;8.624;2023-07-13T04:32:02;19.40;91.00
51011;DHT22;37038;50.182;8.624;2023-07-13T04:34:50;19.50;90.40
51011;DHT22;37038;50.182;8.624;2023-07-13T04:37:40;19.20;90.30
51011;DHT22;37038;50.182;8.624;2023-07-13T04:40:28;19.30;90.10
51011;DHT22;37038;50.182;8.624;2023-07-13T04:43:15;19.80;89.90
51011;DHT22;37038;50.182;8.624;2023-07-13T04:46:07;20.00;88.20
51011;DHT22;37038;50.182;8.624;2023-07-13T04:48:54;19.50;89.20
51011;DHT22;37038;50.182;8.624;2023-07-13T04:51:42;19.00;90.30
51011;DHT22;37038;50.182;8.624;2023-07-13T04:54:30;18.50;91.50
51011;DHT22;37038;50.182;8.624;2023-07-13T04:57:17;18.60;92.00
51011;DHT22;37038;50.182;8.624;2023-07-13T05:00:05;18.40;91.60
51011;DHT22;37038;50.182;8.624;2023-07-13T05:02:53;18.20;92.10
51011;DHT22;37038;50.182;8.624;2023-07-13T05:05:54;18.30;92.50
51011;DHT22;37038;50.182;8.624;2023-07-13T05:08:41;18.30;92.50
51011;DHT22;37038;50.182;8.624;2023-07-13T05:11:29;19.20;91.60
51011;DHT22;37038;50.182;8.624;2023-07-13T05:14:16;19.90;90.20
51011;DHT22;37038;50.182;8.624;2023-07-13T05:17:04;20.20;88.40
51011;DHT22;37038;50.182;8.624;2023-07-13T05:19:52;20.10;86.70
51011;DHT22;37038;50.182;8.624;2023-07-13T05:22:39;20.20;88.00
51011;DHT22;37038;50.182;8.624;2023-07-13T05:25:44;19.80;87.30
51011;DHT22;37038;50.182;8.624;2023-07-13T05:32:03;19.90;88.10
51011;DHT22;37038;50.182;8.624;2023-07-13T05:34:51;20.60;84.10
51011;DHT22;37038;50.182;8.624;2023-07-13T05:37:45;20.80;82.40
51011;DHT22;37038;50.182;8.624;2023-07-13T05:40:34;20.70;82.20
51011;DHT22;37038;50.182;8.624;2023-07-13T05:43:35;21.00;78.90
51011;DHT22;37038;50.182;8.624;2023-07-13T05:46:22;21.30;73.50
51011;DHT22;37038;50.182;8.624;2023-07-13T05:49:10;21.50;72.10
51011;DHT22;37038;50.182;8.624;2023-07-13T06:01:40;22.10;62.30
51011;DHT22;37038;50.182;8.624;2023-07-13T06:04:31;22.60;62.10
51011;DHT22;37038;50.182;8.624;2023-07-13T06:07:20;21.80;62.30
51011;DHT22;37038;50.182;8.624;2023-07-13T06:10:14;21.40;64.80
51011;DHT22;37038;50.182;8.624;2023-07-13T06:13:01;22.00;62.60
51011;DHT22;37038;50.182;8.624;2023-07-13T06:15:50;22.60;61.20
51011;DHT22;37038;50.182;8.624;2023-07-13T06:18:38;22.50;58.70
51011;DHT22;37038;50.182;8.624;2023-07-13T06:21:26;22.30;60.70
51011;DHT22;37038;50.182;8.624;2023-07-13T06:24:14;22.80;59.10
51011;DHT22;37038;50.182;8.624;2023-07-13T06:27:01;22.60;57.80
51011;DHT22;37038;50.182;8.624;2023-07-13T06:29:49;22.00;59.70
51011;DHT22;37038;50.182;8.624;2023-07-13T06:32:39;22.80;58.90
51011;DHT22;37038;50.182;8.624;2023-07-13T06:35:35;22.70;58.10
51011;DHT22;37038;50.182;8.624;2023-07-13T06:38:26;22.10;58.50
51011;DHT22;37038;50.182;8.624;2023-07-13T06:41:13;23.50;55.60
51011;DHT22;37038;50.182;8.624;2023-07-13T06:44:02;23.00;56.30
51011;DHT22;37038;50.182;8.624;2023-07-13T06:46:53;23.10;56.00
51011;DHT22;37038;50.182;8.624;2023-07-13T06:49:40;22.80;55.00
51011;DHT22;37038;50.182;8.624;2023-07-13T06:52:31;23.20;54.90
51011;DHT22;37038;50.182;8.624;2023-07-13T06:55:27;24.30;52.90
51011;DHT22;37038;50.182;8.624;2023-07-13T06:58:18;24.20;49.70
51011;DHT22;37038;50.182;8.624;2023-07-13T07:01:09;23.20;53.00
51011;DHT22;37038;50.182;8.624;2023-07-13T07:03:59;23.40;52.60
51011;DHT22;37038;50.182;8.624;2023-07-13T07:06:47;24.40;49.20
51011;DHT22;37038;50.182;8.624;2023-07-13T07:09:35;24.00;49.10
51011;DHT22;37038;50.182;8.624;2023-07-13T07:12:29;24.70;48.20
51011;DHT22;37038;50.182;8.624;2023-07-13T07:15:17;24.30;49.50
51011;DHT22;37038;50.182;8.624;2023-07-13T07:18:06;25.10;47.30
51011;DHT22;37038;50.182;8.624;2023-07-13T07:20:54;24.40;47.20
51011;DHT22;37038;50.182;8.624;2023-07-13T07:23:42;23.40;48.50
51011;DHT22;37038;50.182;8.624;2023-07-13T07:26:36;23.90;48.40
51011;DHT22;37038;50.182;8.624;2023-07-13T07:29:47;24.40;45.60
51011;DHT22;37038;50.182;8.624;2023-07-13T07:32:55;24.80;43.40
51011;DHT22;37038;50.182;8.624;2023-07-13T07:35:45;24.40;42.80
51011;DHT22;37038;50.182;8.624;2023-07-13T07:38:43;23.70;42.10
51011;DHT22;37038;50.182;8.624;2023-07-13T07:41:33;24.40;41.70
51011;DHT22;37038;50.182;8.624;2023-07-13T07:44:37;24.50;41.00
51011;DHT22;37038;50.182;8.624;2023-07-13T07:47:25;23.80;42.00
51011;DHT22;37038;50.182;8.624;2023-07-13T07:50:14;24.50;41.40
51011;DHT22;37038;50.182;8.624;2023-07-13T07:53:05;25.60;37.10
51011;DHT22;37038;50.182;8.624;2023-07-13T07:56:03;24.50;38.10
51011;DHT22;37038;50.182;8.624;2023-07-13T07:59:13;24.80;34.90
51011;DHT22;37038;50.182;8.624;2023-07-13T08:02:04;25.10;34.50
51011;DHT22;37038;50.182;8.624;2023-07-13T08:05:20;25.60;35.20
51011;DHT22;37038;50.182;8.624;2023-07-13T08:08:26;25.40;33.20
51011;DHT22;37038;50.182;8.624;2023-07-13T08:11:14;24.50;32.10
51011;DHT22;37038;50.182;8.624;2023-07-13T08:14:08;23.80;34.90
51011;DHT22;37038;50.182;8.624;2023-07-13T08:16:58;25.10;34.70
51011;DHT22;37038;50.182;8.624;2023-07-13T08:19:47;24.60;33.50
51011;DHT22;37038;50.182;8.624;2023-07-13T08:22:34;25.30;34.20
51011;DHT22;37038;50.182;8.624;2023-07-13T08:25:27;25.50;32.30
51011;DHT22;37038;50.182;8.624;2023-07-13T08:28:21;25.30;33.80
51011;DHT22;37038;50.182;8.624;2023-07-13T08:31:13;25.30;32.20
51011;DHT22;37038;50.182;8.624;2023-07-13T08:34:06;26.60;29.20
51011;DHT22;37038;50.182;8.624;2023-07-13T08:36:58;24.90;29.80
51011;DHT22;37038;50.182;8.624;2023-07-13T08:39:51;25.20;30.40
51011;DHT22;37038;50.182;8.624;2023-07-13T08:42:45;26.20;28.80
51011;DHT22;37038;50.182;8.624;2023-07-13T08:45:38;26.30;26.90
51011;DHT22;37038;50.182;8.624;2023-07-13T08:48:59;25.70;29.10
51011;DHT22;37038;50.182;8.624;2023-07-13T08:52:08;26.50;27.80
51011;DHT22;37038;50.182;8.624;2023-07-13T08:58:22;27.30;26.40
51011;DHT22;37038;50.182;8.624;2023-07-13T09:01:22;25.10;25.40
51011;DHT22;37038;50.182;8.624;2023-07-13T09:04:16;25.40;27.00
51011;DHT22;37038;50.182;8.624;2023-07-13T09:10:19;25.80;24.60
51011;DHT22;37038;50.182;8.624;2023-07-13T09:16:37;25.90;26.70
51011;DHT22;37038;50.182;8.624;2023-07-13T09:23:04;26.50;24.60
51011;DHT22;37038;50.182;8.624;2023-07-13T09:26:17;25.70;24.90
51011;DHT22;37038;50.182;8.624;2023-07-13T09:32:47;28.40;22.80
51011;DHT22;37038;50.182;8.624;2023-07-13T09:42:28;27.30;21.00
51011;DHT22;37038;50.182;8.624;2023-07-13T09:45:28;28.30;18.60
51011;DHT22;37038;50.182;8.624;2023-07-13T09:48:24;27.80;17.90
51011;DHT22;37038;50.182;8.624;2023-07-13T09:51:13;27.60;16.90
51011;DHT22;37038;50.182;8.624;2023-07-13T10:01:09;25.70;19.00
51011;DHT22;37038;50.182;8.624;2023-07-13T10:11:54;26.50;16.50
51011;DHT22;37038;50.182;8.624;2023-07-13T10:15:03;26.00;17.00
51011;DHT22;37038;50.182;8.624;2023-07-13T10:18:10;25.60;16.50
51011;DHT22;37038;50.182;8.624;2023-07-13T10:21:18;25.00;18.50
51011;DHT22;37038;50.182;8.624;2023-07-13T10:24:13;25.00;19.10
51011;DHT22;37038;50.182;8.624;2023-07-13T10:27:32;25.00;20.30
51011;DHT22;37038;50.182;8.624;2023-07-13T10:30:39;25.40;16.70
51011;DHT22;37038;50.182;8.624;2023-07-13T10:33:28;26.20;17.50
51011;DHT22;37038;50.182;8.624;2023-07-13T10:36:33;24.60;17.50
51011;DHT22;37038;50.182;8.624;2023-07-13T10:39:26;24.50;19.00
51011;DHT22;37038;50.182;8.624;2023-07-13T10:42:25;25.40;17.50
51011;DHT22;37038;50.182;8.624;2023-07-13T10:45:20;26.60;16.60
51011;DHT22;37038;50.182;8.624;2023-07-13T10:48:11;26.00;17.30
51011;DHT22;37038;50.182;8.624;2023-07-13T10:51:04;26.60;14.60
51011;DHT22;37038;50.182;8.624;2023-07-13T10:57:19;26.00;15.70
51011;DHT22;37038;50.182;8.624;2023-07-13T11:03:02;27.50;15.80
51011;DHT22;37038;50.182;8.624;2023-07-13T11:06:04;27.50;13.50
51011;DHT22;37038;50.182;8.624;2023-07-13T11:08:56;25.70;14.90
51011;DHT22;37038;50.182;8.624;2023-07-13T11:11:47;26.50;15.30
51011;DHT22;37038;50.182;8.624;2023-07-13T11:14:43;25.80;14.00
51011;DHT22;37038;50.182;8.624;2023-07-13T11:17:35;25.70;15.90
51011;DHT22;37038;50.182;8.624;2023-07-13T11:20:48;25.30;16.40
51011;DHT22;37038;50.182;8.624;2023-07-13T11:23:35;25.30;15.20
51011;DHT22;37038;50.182;8.624;2023-07-13T11:26:41;25.10;15.90
51011;DHT22;37038;50.182;8.624;2023-07-13T11:29:40;25.00;16.80
51011;DHT22;37038;50.182;8.624;2023-07-13T11:32:35;24.40;17.30
51011;DHT22;37038;50.182;8.624;2023-07-13T11:35:29;25.60;16.30
51011;DHT22;37038;50.182;8.624;2023-07-13T11:38:19;26.90;13.60
51011;DHT22;37038;50.182;8.624;2023-07-13T11:41:19;26.30;13.30
51011;DHT22;37038;50.182;8.624;2023-07-13T11:44:16;27.10;13.40
51011;DHT22;37038;50.182;8.624;2023-07-13T11:47:10;26.00;14.70
51011;DHT22;37038;50.182;8.624;2023-07-13T11:50:02;25.30;14.90
51011;DHT22;37038;50.182;8.624;2023-07-13T11:52:53;26.00;13.70
51011;DHT22;37038;50.182;8.624;2023-07-13T11:55:46;26.60;12.90
51011;DHT22;37038;50.182;8.624;2023-07-13T11:58:38;25.10;15.00
51011;DHT22;37038;50.182;8.624;2023-07-13T12:01:30;25.10;13.90
51011;DHT22;37038;50.182;8.624;2023-07-13T12:04:26;25.90;12.40
51011;DHT22;37038;50.182;8.624;2023-07-13T12:07:18;25.30;13.80
51011;DHT22;37038;50.182;8.624;2023-07-13T12:13:14;25.40;15.00
51011;DHT22;37038;50.182;8.624;2023-07-13T12:16:07;27.20;12.00
51011;DHT22;37038;50.182;8.624;2023-07-13T12:19:00;25.30;13.70
51011;DHT22;37038;50.182;8.624;2023-07-13T12:21:50;24.90;14.80
51011;DHT22;37038;50.182;8.624;2023-07-13T12:24:41;25.50;15.10
51011;DHT22;37038;50.182;8.624;2023-07-13T12:27:41;26.00;14.20
51011;DHT22;37038;50.182;8.624;2023-07-13T12:30:32;26.00;14.20
51011;DHT22;37038;50.182;8.624;2023-07-13T12:33:28;25.10;15.20
51011;DHT22;37038;50.182;8.624;2023-07-13T12:36:19;24.90;16.00
51011;DHT22;37038;50.182;8.624;2023-07-13T12:39:13;25.10;15.80
51011;DHT22;37038;50.182;8.624;2023-07-13T12:42:16;24.90;15.00
51011;DHT22;37038;50.182;8.624;2023-07-13T12:45:21;24.80;15.10
51011;DHT22;37038;50.182;8.624;2023-07-13T12:48:19;25.10;14.80
51011;DHT22;37038;50.182;8.624;2023-07-13T12:51:26;25.00;15.00
51011;DHT22;37038;50.182;8.624;2023-07-13T12:54:27;25.20;14.90
51011;DHT22;37038;50.182;8.624;2023-07-13T12:57:17;25.30;14.60
51011;DHT22;37038;50.182;8.624;2023-07-13T13:00:47;25.00;15.10
51011;DHT22;37038;50.182;8.624;2023-07-13T13:09:06;24.30;15.40
51011;DHT22;37038;50.182;8.624;2023-07-13T13:12:00;24.70;15.30
51011;DHT22;37038;50.182;8.624;2023-07-13T13:14:48;24.80;14.70
51011;DHT22;37038;50.182;8.624;2023-07-13T13:17:38;25.10;14.80
51011;DHT22;37038;50.182;8.624;2023-07-13T13:20:33;25.30;14.50
51011;DHT22;37038;50.182;8.624;2023-07-13T13:23:20;25.20;15.00
51011;DHT22;37038;50.182;8.624;2023-07-13T13:30:01;25.10;16.30
51011;DHT22;37038;50.182;8.624;2023-07-13T13:33:04;25.80;16.30
51011;DHT22;37038;50.182;8.624;2023-07-13T13:35:59;26.20;15.10
51011;DHT22;37038;50.182;8.624;2023-07-13T13:42:19;27.00;14.20
51011;DHT22;37038;50.182;8.624;2023-07-13T13:45:09;26.40;14.50
51011;DHT22;37038;50.182;8.624;2023-07-13T13:51:49;26.80;14.70
51011;DHT22;37038;50.182;8.624;2023-07-13T13:54:59;26.20;15.90
51011;DHT22;37038;50.182;8.624;2023-07-13T13:57:51;25.80;15.50
51011;DHT22;37038;50.182;8.624;2023-07-13T14:01:08;26.10;15.50
51011;DHT22;37038;50.182;8.624;2023-07-13T14:04:32;26.80;15.70
51011;DHT22;37038;50.182;8.624;2023-07-13T14:07:41;26.00;16.50
51011;DHT22;37038;50.182;8.624;2023-07-13T14:10:30;27.30;15.00
51011;DHT22;37038;50.182;8.624;2023-07-13T14:13:25;26.70;14.00
51011;DHT22;37038;50.182;8.624;2023-07-13T14:16:26;26.50;15.60
51011;DHT22;37038;50.182;8.624;2023-07-13T14:19:20;27.50;14.70
51011;DHT22;37038;50.182;8.624;2023-07-13T14:22:17;25.80;15.30
51011;DHT22;37038;50.182;8.624;2023-07-13T14:25:12;25.80;16.40
51011;DHT22;37038;50.182;8.624;2023-07-13T14:31:24;26.80;15.20
51011;DHT22;37038;50.182;8.624;2023-07-13T14:34:16;26.20;15.20
51011;DHT22;37038;50.182;8.624;2023-07-13T14:37:16;25.30;16.20
51011;DHT22;37038;50.182;8.624;2023-07-13T14:40:22;25.60;16.40
51011;DHT22;37038;50.182;8.624;2023-07-13T14:43:18;25.60;15.90
51011;DHT22;37038;50.182;8.624;2023-07-13T14:49:43;25.30;15.70
51011;DHT22;37038;50.182;8.624;2023-07-13T14:52:43;25.80;16.10
51011;DHT22;37038;50.182;8.624;2023-07-13T14:55:39;26.40;14.70
51011;DHT22;37038;50.182;8.624;2023-07-13T14:58:27;26.50;14.00
51011;DHT22;37038;50.182;8.624;2023-07-13T15:01:21;26.90;12.70
51011;DHT22;37038;50.182;8.624;2023-07-13T15:04:18;27.70;12.20
51011;DHT22;37038;50.182;8.624;2023-07-13T15:07:07;27.40;11.90
51011;DHT22;37038;50.182;8.624;2023-07-13T15:10:00;26.80;12.30
51011;DHT22;37038;50.182;8.624;2023-07-13T15:12:51;27.50;12.10
51011;DHT22;37038;50.182;8.624;2023-07-13T15:15:51;27.30;11.30
51011;DHT22;37038;50.182;8.624;2023-07-13T15:18:48;26.10;12.80
51011;DHT22;37038;50.182;8.624;2023-07-13T15:21:36;26.30;13.60
51011;DHT22;37038;50.182;8.624;2023-07-13T15:24:28;26.50;13.50
51011;DHT22;37038;50.182;8.624;2023-07-13T15:27:26;25.90;12.90
51011;DHT22;37038;50.182;8.624;2023-07-13T15:30:20;25.30;14.00
51011;DHT22;37038;50.182;8.624;2023-07-13T15:36:30;24.90;14.20
51011;DHT22;37038;50.182;8.624;2023-07-13T15:39:24;25.00;14.70
51011;DHT22;37038;50.182;8.624;2023-07-13T15:42:23;25.30;15.00
51011;DHT22;37038;50.182;8.624;2023-07-13T15:48:57;25.10;15.70
51011;DHT22;37038;50.182;8.624;2023-07-13T15:51:55;25.00;15.50
51011;DHT22;37038;50.182;8.624;2023-07-13T15:54:46;24.80;15.70
51011;DHT22;37038;50.182;8.624;2023-07-13T15:57:39;25.50;15.60
51011;DHT22;37038;50.182;8.624;2023-07-13T16:00:30;25.70;14.70
51011;DHT22;37038;50.182;8.624;2023-07-13T16:03:26;26.60;13.30
51011;DHT22;37038;50.182;8.624;2023-07-13T16:07:10;25.30;14.50
51011;DHT22;37038;50.182;8.624;2023-07-13T16:12:54;25.40;14.40
51011;DHT22;37038;50.182;8.624;2023-07-13T16:15:56;25.60;13.70
51011;DHT22;37038;50.182;8.624;2023-07-13T16:18:55;25.30;14.60
51011;DHT22;37038;50.182;8.624;2023-07-13T16:21:55;25.50;13.80
51011;DHT22;37038;50.182;8.624;2023-07-13T16:24:59;25.70;14.20
51011;DHT22;37038;50.182;8.624;2023-07-13T16:27:52;26.20;13.20
51011;DHT22;37038;50.182;8.624;2023-07-13T16:30:58;26.50;13.00
51011;DHT22;37038;50.182;8.624;2023-07-13T16:33:58;26.20;13.20
51011;DHT22;37038;50.182;8.624;2023-07-13T16:36:50;26.20;12.50
51011;DHT22;37038;50.182;8.624;2023-07-13T16:39:51;26.80;13.20
51011;DHT22;37038;50.182;8.624;2023-07-13T16:42:56;27.40;12.50
51011;DHT22;37038;50.182;8.624;2023-07-13T16:45:47;27.80;11.00
51011;DHT22;37038;50.182;8.624;2023-07-13T16:52:47;26.30;11.40
51011;DHT22;37038;50.182;8.624;2023-07-13T17:02:44;24.80;14.00
51011;DHT22;37038;50.182;8.624;2023-07-13T17:05:48;24.60;13.80
51011;DHT22;37038;50.182;8.624;2023-07-13T17:08:43;26.00;12.40
51011;DHT22;37038;50.182;8.624;2023-07-13T17:11:50;25.60;12.70
51011;DHT22;37038;50.182;8.624;2023-07-13T17:14:56;26.00;12.80
51011;DHT22;37038;50.182;8.624;2023-07-13T17:17:49;25.40;13.20
51011;DHT22;37038;50.182;8.624;2023-07-13T17:20:44;25.00;13.10
51011;DHT22;37038;50.182;8.624;2023-07-13T17:23:49;25.40;13.30
51011;DHT22;37038;50.182;8.624;2023-07-13T17:27:03;26.10;12.10
51011;DHT22;37038;50.182;8.624;2023-07-13T17:30:13;26.00;12.40
51011;DHT22;37038;50.182;8.624;2023-07-13T17:33:03;25.20;13.70
51011;DHT22;37038;50.182;8.624;2023-07-13T17:35:57;25.80;12.80
51011;DHT22;37038;50.182;8.624;2023-07-13T17:38:55;26.10;12.40
51011;DHT22;37038;50.182;8.624;2023-07-13T17:45:54;26.30;13.40
51011;DHT22;37038;50.182;8.624;2023-07-13T17:52:45;26.00;12.90
51011;DHT22;37038;50.182;8.624;2023-07-13T17:55:36;25.80;12.30
51011;DHT22;37038;50.182;8.624;2023-07-13T17:58:38;25.30;12.50
51011;DHT22;37038;50.182;8.624;2023-07-13T18:01:53;25.40;13.40
51011;DHT22;37038;50.182;8.624;2023-07-13T18:05:12;25.80;13.30
51011;DHT22;37038;50.182;8.624;2023-07-13T18:11:27;24.40;14.50
51011;DHT22;37038;50.182;8.624;2023-07-13T18:17:58;23.90;15.70
51011;DHT22;37038;50.182;8.624;2023-07-13T18:24:34;23.50;16.70
51011;DHT22;37038;50.182;8.624;2023-07-13T18:31:20;23.20;17.20
51011;DHT22;37038;50.182;8.624;2023-07-13T18:34:22;23.20;17.60
51011;DHT22;37038;50.182;8.624;2023-07-13T18:40:50;23.20;17.90
51011;DHT22;37038;50.182;8.624;2023-07-13T18:43:45;23.20;17.80
51011;DHT22;37038;50.182;8.624;2023-07-13T18:46:43;23.20;17.70
51011;DHT22;37038;50.182;8.624;2023-07-13T18:49:32;23.20;18.20
51011;DHT22;37038;50.182;8.624;2023-07-13T18:55:53;23.20;18.30
51011;DHT22;37038;50.182;8.624;2023-07-13T18:58:42;23.30;19.10
51011;DHT22;37038;50.182;8.624;2023-07-13T19:01:35;23.30;19.10
51011;DHT22;37038;50.182;8.624;2023-07-13T19:04:27;23.10;19.30
51011;DHT22;37038;50.182;8.624;2023-07-13T19:07:16;22.80;19.60
51011;DHT22;37038;50.182;8.624;2023-07-13T19:10:04;22.70;19.50
51011;DHT22;37038;50.182;8.624;2023-07-13T19:12:56;22.70;20.10
51011;DHT22;37038;50.182;8.624;2023-07-13T19:15:45;22.70;20.20
51011;DHT22;37038;50.182;8.624;2023-07-13T19:18:36;22.70;20.50
51011;DHT22;37038;50.182;8.624;2023-07-13T19:21:34;22.50;20.40
51011;DHT22;37038;50.182;8.624;2023-07-13T19:24:25;22.30;21.00
51011;DHT22;37038;50.182;8.624;2023-07-13T19:27:19;22.10;21.40
51011;DHT22;37038;50.182;8.624;2023-07-13T19:30:10;22.20;21.90
51011;DHT22;37038;50.182;8.624;2023-07-13T19:33:05;22.10;22.70
51011;DHT22;37038;50.182;8.624;2023-07-13T19:35:56;22.20;22.70
51011;DHT22;37038;50.182;8.624;2023-07-13T19:38:44;22.10;22.90
51011;DHT22;37038;50.182;8.624;2023-07-13T19:41:34;22.10;22.90
51011;DHT22;37038;50.182;8.624;2023-07-13T19:44:23;21.80;23.30
51011;DHT22;37038;50.182;8.624;2023-07-13T19:47:14;21.70;23.70
51011;DHT22;37038;50.182;8.624;2023-07-13T19:50:02;21.70;24.10
51011;DHT22;37038;50.182;8.624;2023-07-13T19:52:52;21.70;24.30
51011;DHT22;37038;50.182;8.624;2023-07-13T19:55:43;21.70;24.20
51011;DHT22;37038;50.182;8.624;2023-07-13T19:58:50;21.40;24.60
51011;DHT22;37038;50.182;8.624;2023-07-13T20:01:52;21.20;25.20
51011;DHT22;37038;50.182;8.624;2023-07-13T20:04:46;21.20;26.30
51011;DHT22;37038;50.182;8.624;2023-07-13T20:07:35;21.00;26.10
51011;DHT22;37038;50.182;8.624;2023-07-13T20:10:30;20.70;28.10
51011;DHT22;37038;50.182;8.624;2023-07-13T20:13:22;20.40;28.60
51011;DHT22;37038;50.182;8.624;2023-07-13T20:16:40;20.30;29.90
51011;DHT22;37038;50.182;8.624;2023-07-13T20:19:33;20.20;30.20
51011;DHT22;37038;50.182;8.624;2023-07-13T20:22:22;20.30;30.40
51011;DHT22;37038;50.182;8.624;2023-07-13T20:25:22;20.30;31.30
51011;DHT22;37038;50.182;8.624;2023-07-13T20:28:16;20.30;31.40
51011;DHT22;37038;50.182;8.624;2023-07-13T20:31:12;20.40;31.90
51011;DHT22;37038;50.182;8.624;2023-07-13T20:34:17;20.30;32.20
51011;DHT22;37038;50.182;8.624;2023-07-13T20:40:33;20.80;33.90
51011;DHT22;37038;50.182;8.624;2023-07-13T20:43:31;21.10;33.30
51011;DHT22;37038;50.182;8.624;2023-07-13T20:46:31;21.00;35.70